Comber, United Kingdom
Current Conditions -  °F | °C
As of 2:20 PM on Friday 31 Oct 2014 (Local Time) from EGAC Reporting Station
Broken Clouds Broken Clouds  
Wind Chill: 61°   Ceiling: 4500
Heat Index: 61°   Visibility: 6mi
Dew Point: 57°   Wind: 16mph
Humidity: 88%   Direction: 170°S
Pressure: 29.62"   Gusts: NA
Location:  54.55°N, 5.74°W
Report Text: EGAC 311420Z 17014KT 9999 FEW010 SCT029 BKN045 16/14 Q1003
Loading
Personal Weather Stations






























Interactive Weather Map
Tropical Storm Tracking
New forecast layout! Learn more

10-Day Weather Forecast

Advertisements
Track Severe Weather on mobile